createdAt,value
2023-05-15T00:01:37.462Z,95.13
2023-05-15T00:04:06.691Z,94.64
2023-05-15T00:06:34.430Z,94.25
2023-05-15T00:09:02.749Z,94.66
2023-05-15T00:11:30.648Z,94.22
2023-05-15T00:13:58.459Z,94.42
2023-05-15T00:16:26.246Z,94.15
2023-05-15T00:18:54.140Z,94.72
2023-05-15T00:21:23.304Z,94.64
2023-05-15T00:23:54.005Z,95.44
2023-05-15T00:26:24.416Z,95.23
2023-05-15T00:28:53.210Z,95.25
2023-05-15T00:31:22.097Z,95.00
2023-05-15T00:33:49.896Z,94.83
2023-05-15T00:36:17.750Z,94.31
2023-05-15T00:38:47.007Z,94.52
2023-05-15T00:41:16.794Z,94.36
2023-05-15T00:43:44.942Z,93.70
2023-05-15T00:46:14.120Z,93.84
2023-05-15T00:48:44.646Z,93.93
2023-05-15T00:51:13.295Z,94.35
2023-05-15T00:53:41.700Z,94.19
2023-05-15T00:56:13.127Z,93.58
2023-05-15T00:58:41.094Z,93.80
2023-05-15T01:01:08.955Z,93.78
2023-05-15T01:03:37.740Z,94.09
2023-05-15T01:06:06.178Z,93.63
2023-05-15T01:08:40.771Z,93.85
2023-05-15T01:11:12.798Z,94.70
2023-05-15T01:13:40.890Z,95.43
2023-05-15T01:16:09.951Z,95.54
2023-05-15T01:18:38.578Z,96.71
2023-05-15T01:22:01.129Z,97.77
2023-05-15T01:24:52.119Z,98.44
2023-05-15T01:27:30.522Z,98.52
2023-05-15T01:30:06.507Z,97.96
2023-05-15T01:33:01.229Z,99.14
2023-05-15T01:35:33.493Z,98.78
2023-05-15T01:38:14.068Z,99.08
2023-05-15T01:40:42.812Z,99.68
2023-05-15T01:43:16.779Z,100.00
2023-05-15T01:45:46.027Z,100.00
2023-05-15T01:48:16.448Z,100.00
2023-05-15T01:50:46.695Z,100.00
2023-05-15T01:53:16.282Z,100.00
2023-05-15T01:55:44.720Z,100.00
2023-05-15T01:58:13.329Z,100.00
2023-05-15T02:00:42.862Z,100.00
2023-05-15T02:03:11.300Z,100.00
2023-05-15T02:05:40.819Z,100.00
2023-05-15T02:08:09.954Z,100.00
2023-05-15T02:10:38.241Z,100.00
2023-05-15T02:13:07.353Z,100.00
2023-05-15T02:15:36.763Z,100.00
2023-05-15T02:18:04.981Z,100.00
2023-05-15T02:20:32.800Z,100.00
2023-05-15T02:23:01.973Z,100.00
2023-05-15T02:25:38.606Z,100.00
2023-05-15T02:28:16.713Z,100.00
2023-05-15T02:30:50.794Z,100.00
2023-05-15T02:33:27.012Z,100.00
2023-05-15T02:35:59.886Z,100.00
2023-05-15T02:38:32.092Z,100.00
2023-05-15T02:41:01.742Z,100.00
2023-05-15T02:43:30.980Z,100.00
2023-05-15T02:46:00.840Z,100.00
2023-05-15T02:48:28.902Z,100.00
2023-05-15T02:50:56.793Z,100.00
2023-05-15T02:53:24.602Z,100.00
2023-05-15T02:55:53.687Z,100.00
2023-05-15T02:58:21.543Z,100.00
2023-05-15T03:00:49.596Z,100.00
2023-05-15T03:03:17.636Z,100.00
2023-05-15T03:05:45.449Z,100.00
2023-05-15T03:08:13.304Z,100.00
2023-05-15T03:10:41.022Z,100.00
2023-05-15T03:13:10.208Z,100.00
2023-05-15T03:15:38.630Z,100.00
2023-05-15T03:18:06.611Z,100.00
2023-05-15T03:20:34.644Z,100.00
2023-05-15T03:23:02.508Z,100.00
2023-05-15T03:25:30.328Z,100.00
2023-05-15T03:27:58.203Z,100.00
2023-05-15T03:30:27.342Z,100.00
2023-05-15T03:32:57.342Z,100.00
2023-05-15T03:35:26.312Z,100.00
2023-05-15T03:37:54.291Z,100.00
2023-05-15T03:40:22.134Z,100.00
2023-05-15T03:42:53.522Z,100.00
2023-05-15T03:45:21.623Z,100.00
2023-05-15T03:47:50.905Z,100.00
2023-05-15T03:50:18.973Z,100.00
2023-05-15T03:52:46.823Z,100.00
2023-05-15T03:55:14.692Z,100.00
2023-05-15T03:57:42.660Z,100.00
2023-05-15T04:00:12.113Z,100.00
2023-05-15T04:02:40.618Z,100.00
2023-05-15T04:05:10.455Z,100.00
2023-05-15T04:07:38.488Z,100.00
2023-05-15T04:10:07.220Z,100.00
2023-05-15T04:12:36.554Z,100.00
2023-05-15T04:15:18.643Z,100.00
2023-05-15T04:17:47.734Z,100.00
2023-05-15T04:20:18.309Z,100.00
2023-05-15T04:22:46.988Z,100.00
2023-05-15T04:25:16.260Z,100.00
2023-05-15T04:27:44.684Z,100.00
2023-05-15T04:30:13.830Z,100.00
2023-05-15T04:32:42.375Z,100.00
2023-05-15T04:35:13.394Z,100.00
2023-05-15T04:37:45.364Z,100.00
2023-05-15T04:40:15.010Z,100.00
2023-05-15T04:42:43.296Z,100.00
2023-05-15T04:45:11.447Z,100.00
2023-05-15T04:47:39.419Z,100.00
2023-05-15T04:50:09.137Z,100.00
2023-05-15T04:52:37.327Z,100.00
2023-05-15T04:55:08.202Z,100.00
2023-05-15T04:57:36.102Z,100.00
2023-05-15T05:00:05.755Z,100.00
2023-05-15T05:02:34.165Z,100.00
2023-05-15T05:05:02.079Z,100.00
2023-05-15T05:07:30.163Z,100.00
2023-05-15T05:09:58.080Z,100.00
2023-05-15T05:12:28.050Z,100.00
2023-05-15T05:14:56.817Z,100.00
2023-05-15T05:17:24.801Z,100.00
2023-05-15T05:19:52.663Z,100.00
2023-05-15T05:22:20.609Z,100.00
2023-05-15T05:24:48.511Z,100.00
2023-05-15T05:27:16.471Z,100.00
2023-05-15T05:29:46.278Z,100.00
2023-05-15T05:32:14.167Z,100.00
2023-05-15T05:34:42.229Z,100.00
2023-05-15T05:37:10.285Z,100.00
2023-05-15T05:39:38.090Z,100.00
2023-05-15T05:42:06.696Z,100.00
2023-05-15T05:44:37.727Z,100.00
2023-05-15T05:47:07.378Z,100.00
2023-05-15T05:49:35.192Z,100.00
2023-05-15T05:52:11.858Z,100.00
2023-05-15T05:54:39.618Z,100.00
2023-05-15T05:57:07.756Z,100.00
2023-05-15T05:59:37.451Z,100.00
2023-05-15T06:02:06.928Z,100.00
2023-05-15T06:04:34.926Z,100.00
2023-05-15T06:07:04.698Z,100.00
2023-05-15T06:09:32.924Z,100.00
2023-05-15T06:12:04.740Z,100.00
2023-05-15T06:14:32.711Z,100.00
2023-05-15T06:17:01.454Z,99.91
2023-05-15T06:19:30.837Z,100.00
2023-05-15T06:21:58.727Z,99.33
2023-05-15T06:24:26.906Z,100.00
2023-05-15T06:26:54.850Z,100.00
2023-05-15T06:29:22.694Z,99.86
2023-05-15T06:31:50.495Z,99.03
2023-05-15T06:34:18.377Z,98.93
2023-05-15T06:36:47.869Z,97.99
2023-05-15T06:39:15.770Z,97.00
2023-05-15T06:41:43.562Z,96.68
2023-05-15T06:44:11.249Z,96.92
2023-05-15T06:46:39.068Z,95.92
2023-05-15T06:49:06.951Z,95.43
2023-05-15T06:51:34.869Z,95.30
2023-05-15T06:54:04.829Z,95.05
2023-05-15T06:56:32.722Z,94.67
2023-05-15T06:59:00.514Z,94.53
2023-05-15T07:01:28.320Z,94.30
2023-05-15T07:03:56.256Z,93.48
2023-05-15T07:06:24.114Z,93.05
2023-05-15T07:08:51.891Z,93.22
2023-05-15T07:11:21.156Z,93.13
2023-05-15T07:13:50.194Z,93.48
2023-05-15T07:16:18.574Z,90.04
2023-05-15T07:18:46.589Z,92.09
2023-05-15T07:21:14.558Z,93.37
2023-05-15T07:23:42.410Z,93.76
2023-05-15T07:26:14.113Z,92.38
2023-05-15T07:28:46.202Z,93.16
2023-05-15T07:31:14.157Z,92.13
2023-05-15T07:33:42.235Z,92.34
2023-05-15T07:36:10.300Z,89.90
2023-05-15T07:38:38.095Z,90.64
2023-05-15T07:41:06.038Z,89.94
2023-05-15T07:43:33.766Z,91.13
2023-05-15T07:46:03.035Z,90.13
2023-05-15T07:48:30.932Z,90.16
2023-05-15T07:50:58.702Z,87.95
2023-05-15T07:53:26.551Z,87.82
2023-05-15T07:55:54.553Z,90.23
2023-05-15T07:58:23.251Z,90.67
2023-05-15T08:00:51.151Z,89.58
2023-05-15T08:03:23.528Z,90.07
2023-05-15T08:05:52.052Z,90.43
2023-05-15T08:08:20.185Z,90.18
2023-05-15T08:10:47.969Z,89.44
2023-05-15T08:13:15.827Z,89.93
2023-05-15T08:15:44.388Z,89.44
2023-05-15T08:18:12.568Z,89.79
2023-05-15T08:20:41.777Z,90.18
2023-05-15T08:23:09.607Z,89.03
2023-05-15T08:25:37.405Z,89.35
2023-05-15T08:28:05.947Z,89.93
2023-05-15T08:30:33.796Z,89.84
2023-05-15T08:33:01.702Z,89.73
2023-05-15T08:35:29.563Z,89.80
2023-05-15T08:37:58.993Z,89.89
2023-05-15T08:40:38.150Z,90.17
2023-05-15T08:43:15.045Z,89.53
2023-05-15T08:45:44.098Z,89.50
2023-05-15T08:48:17.303Z,89.73
2023-05-15T08:50:45.951Z,89.95
2023-05-15T08:53:16.214Z,90.48
2023-05-15T08:55:44.244Z,90.79
2023-05-15T08:58:12.144Z,90.63
2023-05-15T09:00:40.041Z,90.21
2023-05-15T09:03:08.067Z,90.83
2023-05-15T09:05:37.386Z,89.59
2023-05-15T09:08:09.336Z,90.14
2023-05-15T09:10:38.544Z,90.25
2023-05-15T09:13:08.234Z,89.93
2023-05-15T09:15:37.297Z,90.47
2023-05-15T09:18:07.864Z,91.03
2023-05-15T09:20:37.567Z,91.46
2023-05-15T09:23:06.615Z,91.71
2023-05-15T09:25:37.727Z,91.58
2023-05-15T09:28:07.452Z,91.89
2023-05-15T09:30:35.586Z,91.59
2023-05-15T09:33:04.981Z,91.96
2023-05-15T09:35:34.004Z,91.49
2023-05-15T09:38:02.927Z,92.19
2023-05-15T09:40:31.760Z,92.45
2023-05-15T09:42:59.740Z,92.12
2023-05-15T09:45:30.367Z,93.44
2023-05-15T09:48:02.537Z,93.37
2023-05-15T09:50:34.807Z,92.98
2023-05-15T09:53:03.226Z,92.55
2023-05-15T09:55:32.852Z,92.96
2023-05-15T09:58:08.815Z,92.71
2023-05-15T10:00:47.980Z,93.26
2023-05-15T10:03:19.968Z,93.49
2023-05-15T10:05:48.075Z,93.64
2023-05-15T10:08:16.214Z,93.65
2023-05-15T10:10:44.520Z,94.04
2023-05-15T10:13:12.787Z,94.35
2023-05-15T10:15:42.721Z,94.37
2023-05-15T10:18:10.624Z,94.53
2023-05-15T10:20:39.730Z,94.71
2023-05-15T10:23:11.726Z,94.57
2023-05-15T10:25:44.279Z,94.61
2023-05-15T10:28:13.251Z,93.66
2023-05-15T10:30:44.204Z,92.78
2023-05-15T10:33:14.418Z,92.43
2023-05-15T10:35:43.700Z,90.73
2023-05-15T10:38:12.742Z,90.62
2023-05-15T10:40:42.903Z,89.69
2023-05-15T10:43:12.534Z,88.93
2023-05-15T10:45:44.518Z,87.93
2023-05-15T10:48:13.615Z,87.53
2023-05-15T10:50:41.674Z,87.51
2023-05-15T10:53:11.096Z,88.22
2023-05-15T10:55:38.957Z,88.91
2023-05-15T10:58:10.137Z,89.60
2023-05-15T11:00:44.868Z,89.47
2023-05-15T11:03:15.200Z,88.14
2023-05-15T11:06:08.609Z,86.11
2023-05-15T11:08:36.883Z,86.40
2023-05-15T11:11:04.707Z,85.99
2023-05-15T11:14:12.253Z,86.58
2023-05-15T11:17:01.256Z,85.66
2023-05-15T11:19:58.786Z,84.60
2023-05-15T11:22:31.888Z,83.20
2023-05-15T11:25:01.626Z,82.44
2023-05-15T11:27:31.975Z,83.24
2023-05-15T11:30:14.832Z,82.52
2023-05-15T11:32:46.670Z,82.96
2023-05-15T11:35:19.110Z,82.73
2023-05-15T11:37:49.494Z,82.81
2023-05-15T11:40:22.414Z,82.83
2023-05-15T11:43:20.416Z,81.96
2023-05-15T11:45:49.980Z,81.62
2023-05-15T11:48:20.724Z,81.08
2023-05-15T11:50:48.634Z,81.68
2023-05-15T11:53:16.630Z,81.06
2023-05-15T11:55:45.955Z,82.06
2023-05-15T11:58:15.474Z,82.57
2023-05-15T12:00:43.730Z,81.83
2023-05-15T12:03:25.636Z,83.02
2023-05-15T12:05:59.392Z,82.52
2023-05-15T12:08:32.564Z,82.39
2023-05-15T12:11:01.112Z,83.14
2023-05-15T12:13:29.283Z,83.44
2023-05-15T12:15:57.962Z,83.74
2023-05-15T12:18:27.268Z,84.43
2023-05-15T12:20:56.019Z,86.08
2023-05-15T12:23:25.140Z,85.73
2023-05-15T12:25:58.377Z,85.50
2023-05-15T12:28:27.266Z,86.36
2023-05-15T12:30:55.912Z,86.35
2023-05-15T12:33:24.495Z,85.42
2023-05-15T12:35:58.918Z,84.69
2023-05-15T12:38:28.898Z,84.70
2023-05-15T12:40:57.211Z,84.65
2023-05-15T12:43:26.217Z,84.16
2023-05-15T12:45:54.908Z,84.94
2023-05-15T12:48:23.440Z,84.62
2023-05-15T12:50:51.631Z,85.29
2023-05-15T12:53:23.022Z,85.85
2023-05-15T12:55:52.265Z,85.89
2023-05-15T12:58:21.040Z,86.14
2023-05-15T13:00:50.247Z,86.99
2023-05-15T13:03:21.501Z,87.25
2023-05-15T13:05:49.403Z,87.23
2023-05-15T13:08:18.789Z,85.64
2023-05-15T13:10:48.733Z,85.28
2023-05-15T13:13:17.724Z,84.84
2023-05-15T13:15:46.606Z,85.54
2023-05-15T13:18:16.118Z,84.45
2023-05-15T13:20:45.408Z,83.57
2023-05-15T13:23:16.092Z,83.31
2023-05-15T13:25:46.360Z,82.10
2023-05-15T13:28:15.889Z,82.30
2023-05-15T13:30:44.362Z,81.87
2023-05-15T13:33:13.628Z,82.72
2023-05-15T13:35:44.086Z,82.61
2023-05-15T13:38:12.694Z,82.17
2023-05-15T13:40:45.490Z,81.38
2023-05-15T13:43:13.273Z,81.83
2023-05-15T13:45:42.657Z,82.03
2023-05-15T13:48:10.565Z,82.23
2023-05-15T13:50:38.511Z,82.42
2023-05-15T13:53:06.296Z,82.79
2023-05-15T13:55:34.254Z,82.85
2023-05-15T13:58:02.381Z,83.01
2023-05-15T14:00:30.405Z,83.04
2023-05-15T14:02:59.753Z,84.30
2023-05-15T14:05:27.595Z,84.33
2023-05-15T14:07:57.095Z,84.93
2023-05-15T14:10:25.286Z,85.57
2023-05-15T14:12:53.581Z,85.52
2023-05-15T14:15:21.397Z,85.22
2023-05-15T14:17:50.680Z,85.19
2023-05-15T14:20:20.048Z,84.59
2023-05-15T14:22:47.892Z,84.70
2023-05-15T14:25:15.690Z,84.66
2023-05-15T14:27:43.682Z,84.22
2023-05-15T14:30:12.264Z,83.73
2023-05-15T14:32:40.129Z,84.34
2023-05-15T14:35:08.602Z,85.06
2023-05-15T14:37:38.376Z,85.28
2023-05-15T14:40:08.107Z,85.12
2023-05-15T14:42:35.887Z,84.90
2023-05-15T14:45:05.264Z,85.89
2023-05-15T14:47:33.818Z,85.78
2023-05-15T14:50:01.680Z,85.26
2023-05-15T14:52:29.749Z,85.51
2023-05-15T14:55:08.576Z,84.89
2023-05-15T14:57:37.417Z,84.39
2023-05-15T15:00:06.729Z,85.31
2023-05-15T15:02:34.878Z,85.56
2023-05-15T15:05:03.062Z,86.31
2023-05-15T15:07:31.408Z,86.35
2023-05-15T15:10:00.769Z,86.44
2023-05-15T15:12:28.538Z,86.40
2023-05-15T15:14:56.333Z,87.15
2023-05-15T15:17:24.116Z,87.19
2023-05-15T15:19:51.959Z,86.60
2023-05-15T15:22:19.801Z,87.32
2023-05-15T15:24:48.057Z,87.54
2023-05-15T15:27:18.458Z,87.61
2023-05-15T15:29:46.794Z,88.07
2023-05-15T15:32:14.709Z,89.29
2023-05-15T15:34:42.790Z,89.20
2023-05-15T15:37:11.457Z,89.75
2023-05-15T15:39:39.256Z,89.82
2023-05-15T15:42:07.479Z,89.10
2023-05-15T15:44:36.726Z,89.35
2023-05-15T15:47:04.855Z,89.46
2023-05-15T15:49:33.054Z,88.38
2023-05-15T15:52:01.245Z,87.64
2023-05-15T15:54:30.272Z,87.75
2023-05-15T15:56:58.175Z,87.60
2023-05-15T15:59:26.236Z,88.90
2023-05-15T16:01:55.712Z,89.24
2023-05-15T16:04:23.611Z,89.74
2023-05-15T16:06:51.488Z,89.35
2023-05-15T16:09:20.319Z,89.14
2023-05-15T16:11:48.090Z,89.61
2023-05-15T16:14:15.899Z,91.55
2023-05-15T16:16:43.728Z,92.90
2023-05-15T16:19:13.669Z,92.13
2023-05-15T16:21:41.499Z,91.94
2023-05-15T16:24:09.336Z,92.87
2023-05-15T16:26:39.560Z,93.37
2023-05-15T16:29:07.360Z,93.19
2023-05-15T16:31:35.306Z,93.31
2023-05-15T16:34:03.893Z,94.80
2023-05-15T16:36:33.220Z,96.82
2023-05-15T16:39:03.088Z,97.66
2023-05-15T16:41:31.126Z,97.54
2023-05-15T16:43:58.869Z,98.58
2023-05-15T16:46:26.674Z,99.51
2023-05-15T16:48:54.436Z,99.78
2023-05-15T16:51:22.642Z,98.99
2023-05-15T16:53:52.716Z,98.29
2023-05-15T16:56:20.980Z,98.22
2023-05-15T16:58:48.855Z,97.77
2023-05-15T17:01:16.721Z,98.10
2023-05-15T17:03:44.793Z,98.23
2023-05-15T17:06:12.643Z,97.88
2023-05-15T17:08:42.627Z,97.56
2023-05-15T17:11:13.356Z,97.17
2023-05-15T17:13:41.615Z,96.77
2023-05-15T17:16:09.768Z,96.30
2023-05-15T17:18:39.967Z,95.70
2023-05-15T17:21:08.002Z,96.90
2023-05-15T17:23:36.139Z,96.37
2023-05-15T17:26:04.363Z,98.58
2023-05-15T17:28:35.780Z,99.43
2023-05-15T17:31:10.434Z,97.74
2023-05-15T17:33:38.279Z,97.66
2023-05-15T17:36:06.339Z,95.88
2023-05-15T17:38:34.239Z,95.25
2023-05-15T17:41:02.134Z,94.56
2023-05-15T17:43:29.941Z,94.00
2023-05-15T17:46:00.422Z,93.44
2023-05-15T17:48:28.458Z,92.93
2023-05-15T17:50:56.302Z,93.19
2023-05-15T17:53:24.534Z,93.85
2023-05-15T17:55:52.494Z,93.02
2023-05-15T17:58:21.231Z,93.72
2023-05-15T18:00:49.048Z,93.62
2023-05-15T18:03:21.131Z,93.58
2023-05-15T18:05:49.178Z,93.79
2023-05-15T18:08:16.975Z,92.33
2023-05-15T18:10:45.053Z,92.08
2023-05-15T18:13:12.845Z,91.67
2023-05-15T18:15:40.742Z,91.71
2023-05-15T18:18:08.683Z,91.59
2023-05-15T18:20:37.918Z,92.16
2023-05-15T18:23:05.769Z,93.75
2023-05-15T18:25:36.745Z,93.76
2023-05-15T18:28:04.694Z,94.06
2023-05-15T18:30:32.489Z,94.08
2023-05-15T18:33:00.376Z,94.42
2023-05-15T18:35:28.417Z,96.31
2023-05-15T18:37:57.948Z,97.79
2023-05-15T18:40:26.492Z,97.96
2023-05-15T18:42:55.374Z,98.66
2023-05-15T18:45:24.035Z,99.97
2023-05-15T18:47:52.992Z,100.00
2023-05-15T18:50:21.036Z,100.00
2023-05-15T18:52:48.989Z,100.00
2023-05-15T18:55:18.234Z,100.00
2023-05-15T18:57:46.041Z,100.00
2023-05-15T19:00:18.923Z,100.00
2023-05-15T19:02:51.735Z,100.00
2023-05-15T19:05:19.953Z,100.00
2023-05-15T19:07:47.993Z,100.00
2023-05-15T19:10:16.017Z,100.00
2023-05-15T19:12:45.400Z,100.00
2023-05-15T19:15:14.001Z,100.00
2023-05-15T19:17:42.377Z,100.00
2023-05-15T19:20:11.129Z,100.00
2023-05-15T19:22:38.937Z,100.00
2023-05-15T19:25:07.874Z,100.00
2023-05-15T19:27:35.923Z,100.00
2023-05-15T19:30:07.021Z,100.00
2023-05-15T19:32:35.432Z,100.00
2023-05-15T19:35:03.574Z,100.00
2023-05-15T19:37:31.390Z,100.00
2023-05-15T19:39:59.295Z,100.00
2023-05-15T19:42:27.192Z,100.00
2023-05-15T19:44:55.026Z,100.00
2023-05-15T19:47:24.234Z,97.92
2023-05-15T19:49:52.062Z,97.02
2023-05-15T19:52:20.838Z,96.68
2023-05-15T19:54:48.668Z,96.74
2023-05-15T19:57:16.536Z,95.41
2023-05-15T19:59:44.411Z,95.16
2023-05-15T20:02:12.337Z,95.70
2023-05-15T20:04:41.611Z,94.98
2023-05-15T20:07:09.399Z,95.44
2023-05-15T20:09:39.395Z,94.93
2023-05-15T20:12:08.220Z,94.15
2023-05-15T20:14:36.448Z,93.03
2023-05-15T20:17:04.739Z,91.87
2023-05-15T20:19:32.611Z,92.31
2023-05-15T20:22:01.775Z,90.56
2023-05-15T20:24:30.336Z,89.17
2023-05-15T20:26:58.440Z,87.44
2023-05-15T20:29:26.539Z,87.55
2023-05-15T20:31:54.413Z,87.06
2023-05-15T20:34:23.365Z,86.31
2023-05-15T20:36:52.638Z,86.57
2023-05-15T20:39:21.849Z,85.85
2023-05-15T20:41:50.179Z,86.59
2023-05-15T20:44:18.137Z,85.85
2023-05-15T20:46:45.967Z,87.05
2023-05-15T20:49:13.762Z,86.78
2023-05-15T20:51:44.505Z,85.89
2023-05-15T20:54:12.345Z,86.78
2023-05-15T20:56:41.876Z,86.60
2023-05-15T20:59:09.737Z,86.31
2023-05-15T21:01:37.657Z,86.94
2023-05-15T21:04:05.639Z,86.92
2023-05-15T21:06:33.589Z,87.33
2023-05-15T21:09:01.377Z,86.92
2023-05-15T21:11:30.147Z,87.94
2023-05-15T21:13:59.293Z,87.36
2023-05-15T21:16:27.177Z,87.17
2023-05-15T21:18:54.957Z,86.83
2023-05-15T21:21:22.792Z,86.94
2023-05-15T21:23:50.621Z,86.99
2023-05-15T21:26:18.484Z,87.03
2023-05-15T21:28:46.299Z,87.85
2023-05-15T21:31:15.496Z,87.73
2023-05-15T21:33:43.393Z,87.64
2023-05-15T21:36:11.305Z,87.57
2023-05-15T21:38:39.130Z,88.29
2023-05-15T21:41:06.955Z,88.00
2023-05-15T21:43:34.756Z,88.50
2023-05-15T21:46:02.543Z,88.66
2023-05-15T21:48:31.742Z,88.53
2023-05-15T21:50:59.711Z,87.78
2023-05-15T21:53:27.809Z,88.71
2023-05-15T21:56:00.440Z,88.93
2023-05-15T21:58:28.501Z,88.88
2023-05-15T22:00:56.593Z,88.49
2023-05-15T22:03:24.810Z,88.00
2023-05-15T22:05:54.172Z,88.06
2023-05-15T22:08:22.260Z,88.09
2023-05-15T22:10:50.589Z,87.57
2023-05-15T22:13:21.357Z,87.30
2023-05-15T22:15:49.235Z,86.95
2023-05-15T22:18:17.187Z,87.11
2023-05-15T22:20:45.757Z,87.45
2023-05-15T22:23:14.868Z,87.43
2023-05-15T22:25:42.772Z,86.85
2023-05-15T22:28:12.345Z,87.16
2023-05-15T22:30:40.349Z,86.74
2023-05-15T22:33:08.198Z,86.56
2023-05-15T22:35:36.114Z,87.11
2023-05-15T22:38:05.712Z,87.72
2023-05-15T22:40:34.855Z,87.24
2023-05-15T22:43:02.685Z,86.90
2023-05-15T22:45:30.457Z,87.26
2023-05-15T22:47:58.395Z,87.33
2023-05-15T22:50:26.666Z,87.31
2023-05-15T22:52:54.856Z,87.34
2023-05-15T22:55:22.820Z,87.58
2023-05-15T22:57:52.005Z,87.46
2023-05-15T23:00:20.265Z,87.77
2023-05-15T23:02:48.219Z,87.29
2023-05-15T23:05:16.271Z,87.67
2023-05-15T23:07:44.028Z,87.03
2023-05-15T23:10:12.234Z,87.18
2023-05-15T23:12:40.600Z,87.43
2023-05-15T23:15:11.389Z,87.39
2023-05-15T23:17:39.490Z,87.66
2023-05-15T23:20:10.451Z,87.21
2023-05-15T23:22:38.663Z,87.35
2023-05-15T23:25:07.784Z,87.38
2023-05-15T23:27:35.526Z,87.38
2023-05-15T23:30:03.393Z,87.27
2023-05-15T23:32:32.580Z,86.34
2023-05-15T23:35:00.412Z,86.80
2023-05-15T23:37:28.171Z,86.41
2023-05-15T23:39:56.030Z,87.00
2023-05-15T23:42:24.456Z,87.06
2023-05-15T23:44:52.220Z,86.92
2023-05-15T23:47:19.936Z,86.40
2023-05-15T23:49:49.248Z,86.53
2023-05-15T23:52:16.994Z,86.12
2023-05-15T23:54:44.787Z,86.28
2023-05-15T23:57:12.554Z,86.96
2023-05-15T23:59:40.383Z,87.00
